Time;durP1;ratioP1;P1;durP2;ratioP2;P2;SDS_P1;SDS_P2;PMS_P1;PMS_P2;Temp;Humidity;BMP_temperature;BMP_pressure;BME280_temperature;BME280_humidity;BME280_pressure;Samples;Min_cycle;Max_cycle;Signal;HPM_P1;HPM_P2
2023/10/14 00:00:33;;;;;;;5.32;1.60;;;;;;;15.13;100.00;100059.63;5025394;28;20034;-75
2023/10/14 00:03:17;;;;;;;6.60;1.80;;;;;;;15.18;100.00;100065.41;5021671;28;20040;-74
2023/10/14 00:05:43;;;;;;;12.68;1.80;;;;;;;15.11;100.00;100083.13;5019866;28;20042;-74
2023/10/14 00:08:12;;;;;;;11.23;2.75;;;;;;;15.14;100.00;100096.22;5025021;28;20034;-75
2023/10/14 00:10:39;;;;;;;8.23;1.63;;;;;;;15.12;100.00;100089.31;5025312;28;20155;-75
2023/10/14 00:13:10;;;;;;;5.38;1.75;;;;;;;15.21;100.00;100097.38;5031791;28;20040;-76
2023/10/14 00:15:36;;;;;;;7.10;1.50;;;;;;;15.23;100.00;100116.84;5025205;28;20075;-75
2023/10/14 00:18:01;;;;;;;7.13;1.80;;;;;;;15.22;100.00;100128.59;5023759;28;20040;-76
2023/10/14 00:20:34;;;;;;;10.60;1.73;;;;;;;15.10;100.00;100124.34;5028392;28;20038;-75
2023/10/14 00:23:00;;;;;;;8.48;1.63;;;;;;;15.02;100.00;100116.19;5025823;28;20081;-74
2023/10/14 00:25:25;;;;;;;7.90;1.90;;;;;;;15.01;100.00;100120.72;5023408;28;20058;-75
2023/10/14 00:27:50;;;;;;;10.68;2.10;;;;;;;15.09;100.00;100137.94;5030420;28;23471;-74
2023/10/14 00:30:20;;;;;;;15.05;2.42;;;;;;;15.16;100.00;100157.84;5063345;28;20030;-75
2023/10/14 00:32:46;;;;;;;8.98;1.92;;;;;;;15.10;100.00;100167.31;5033223;28;20038;-75
2023/10/14 00:35:12;;;;;;;9.52;2.20;;;;;;;15.21;100.00;100164.50;5045272;28;20038;-75
2023/10/14 00:37:37;;;;;;;9.02;2.20;;;;;;;15.02;100.00;100168.06;5027271;28;20038;-74
2023/10/14 00:40:11;;;;;;;7.95;2.25;;;;;;;15.10;100.00;100156.59;5029436;28;20048;-75
2023/10/14 00:42:37;;;;;;;8.23;2.60;;;;;;;15.14;100.00;100147.25;5030967;28;20037;-75
2023/10/14 00:45:12;;;;;;;9.88;2.75;;;;;;;15.28;100.00;100140.59;5034256;28;20033;-74
2023/10/14 00:47:40;;;;;;;12.70;2.85;;;;;;;15.31;100.00;100164.47;5027201;28;20092;-74
2023/10/14 00:52:55;;;;;;;6.90;2.00;;;;;;;15.24;100.00;100140.03;5031631;28;20041;-75
2023/10/14 00:55:24;;;;;;;5.90;2.13;;;;;;;15.25;100.00;100162.38;5061464;28;20037;-75
2023/10/14 00:57:59;;;;;;;6.57;2.25;;;;;;;15.20;100.00;100154.72;5055656;28;20040;-75
2023/10/14 01:00:37;;;;;;;8.90;2.38;;;;;;;15.03;100.00;100179.66;5030025;28;21062;-76
2023/10/14 01:03:07;;;;;;;6.57;1.73;;;;;;;14.94;100.00;100183.16;5021773;28;20030;-76
2023/10/14 01:05:36;;;;;;;5.97;1.80;;;;;;;15.02;100.00;100181.47;5017069;28;20045;-74
2023/10/14 01:08:04;;;;;;;4.88;2.05;;;;;;;15.03;100.00;100196.59;5022151;28;20033;-75
2023/10/14 01:10:29;;;;;;;9.18;2.50;;;;;;;14.92;100.00;100194.06;5026455;28;20033;-75
2023/10/14 01:12:55;;;;;;;8.02;2.38;;;;;;;14.65;100.00;100223.41;5022927;28;20056;-74
2023/10/14 01:15:21;;;;;;;6.05;2.53;;;;;;;14.54;100.00;100248.53;5026910;28;20312;-74
2023/10/14 01:17:53;;;;;;;8.93;2.40;;;;;;;14.05;100.00;100225.16;5020067;28;20096;-74
2023/10/14 01:22:51;;;;;;;9.55;2.00;;;;;;;13.76;100.00;100203.63;5021131;28;20033;-75
2023/10/14 01:25:19;;;;;;;8.73;2.50;;;;;;;13.72;100.00;100214.59;5014031;28;20045;-75
2023/10/14 01:27:45;;;;;;;4.75;1.83;;;;;;;13.77;100.00;100210.66;5008713;28;20046;-75
2023/10/14 01:30:19;;;;;;;11.38;2.22;;;;;;;13.80;100.00;100215.75;5020567;28;20047;-75
2023/10/14 01:37:55;;;;;;;13.93;2.65;;;;;;;13.84;100.00;100238.63;5030652;28;20054;-75
2023/10/14 01:42:48;;;;;;;8.27;2.33;;;;;;;13.89;100.00;100247.94;5028122;28;20037;-76
2023/10/14 01:45:20;;;;;;;9.90;2.08;;;;;;;13.82;100.00;100244.13;5021966;28;20104;-75
2023/10/14 01:48:01;;;;;;;7.43;1.77;;;;;;;13.88;100.00;100245.41;5027554;28;20041;-76
2023/10/14 01:50:26;;;;;;;11.60;2.75;;;;;;;13.92;100.00;100254.91;5024057;28;20112;-76
2023/10/14 01:52:52;;;;;;;12.35;2.25;;;;;;;13.84;100.00;100260.06;5023798;28;20038;-76
2023/10/14 01:55:20;;;;;;;16.45;2.60;;;;;;;13.80;100.00;100256.78;5028247;28;20232;-75
2023/10/14 01:57:47;;;;;;;10.60;2.63;;;;;;;13.81;100.00;100273.75;5011219;28;20070;-76
2023/10/14 02:00:25;;;;;;;9.93;2.22;;;;;;;13.88;100.00;100272.22;5026579;28;20033;-75
2023/10/14 02:03:05;;;;;;;9.50;2.30;;;;;;;13.87;100.00;100270.53;5021843;28;20049;-75
2023/10/14 02:05:42;;;;;;;7.25;2.10;;;;;;;13.82;100.00;100278.97;5014394;28;20083;-76
2023/10/14 02:08:16;;;;;;;8.52;3.00;;;;;;;13.83;100.00;100286.00;5012357;28;20037;-75
2023/10/14 02:10:54;;;;;;;14.82;2.70;;;;;;;13.68;100.00;100290.00;5010980;28;20044;-76
2023/10/14 02:13:21;;;;;;;12.30;2.67;;;;;;;13.79;100.00;100297.97;5025718;28;20087;-76
2023/10/14 02:15:48;;;;;;;9.70;2.67;;;;;;;13.83;100.00;100306.59;5013653;28;20053;-75
2023/10/14 02:18:20;;;;;;;15.25;2.95;;;;;;;13.72;100.00;100319.09;5025387;28;20049;-75
2023/10/14 02:21:05;;;;;;;11.63;2.80;;;;;;;13.55;100.00;100330.38;5016522;28;20745;-75
2023/10/14 02:23:44;;;;;;;16.02;3.05;;;;;;;13.51;100.00;100338.81;5015343;28;20056;-75
2023/10/14 02:26:24;;;;;;;12.15;2.92;;;;;;;13.58;100.00;100340.84;5025811;28;20120;-76
2023/10/14 02:28:52;;;;;;;16.88;2.70;;;;;;;13.59;100.00;100339.00;5024096;28;20060;-75
2023/10/14 02:31:43;;;;;;;20.17;2.97;;;;;;;13.56;100.00;100358.88;5023877;28;20114;-75
2023/10/14 02:34:06;;;;;;;9.27;2.88;;;;;;;13.52;100.00;100362.78;5023895;28;20057;-75
2023/10/14 02:36:40;;;;;;;12.32;3.05;;;;;;;13.51;100.00;100360.25;5026403;28;20042;-77
2023/10/14 02:39:14;;;;;;;11.32;2.67;;;;;;;13.51;100.00;100379.00;5013979;28;20040;-76
2023/10/14 02:41:43;;;;;;;15.10;2.88;;;;;;;13.47;100.00;100376.56;5056228;28;20048;-76
2023/10/14 02:46:45;;;;;;;13.82;2.80;;;;;;;13.44;100.00;100392.03;5024140;28;20079;-76
2023/10/14 02:49:18;;;;;;;19.27;3.03;;;;;;;13.42;100.00;100408.22;5014432;28;20111;-77
2023/10/14 02:51:45;;;;;;;12.10;2.83;;;;;;;13.37;100.00;100415.78;5027303;28;20064;-75
2023/10/14 02:54:15;;;;;;;18.83;3.45;;;;;;;13.27;100.00;100412.16;5027463;28;20204;-76
2023/10/14 02:59:16;;;;;;;16.88;3.58;;;;;;;13.05;100.00;100430.91;5023677;28;20038;-76
2023/10/14 03:02:09;;;;;;;19.30;3.45;;;;;;;12.95;100.00;100444.16;5029196;28;20021;-75
2023/10/14 03:04:39;;;;;;;18.73;3.08;;;;;;;12.87;100.00;100447.47;5022452;28;20047;-76
2023/10/14 03:07:07;;;;;;;20.67;3.05;;;;;;;12.87;100.00;100455.50;5058477;28;20991;-75
2023/10/14 03:09:34;;;;;;;19.75;3.95;;;;;;;12.77;100.00;100457.19;5019368;28;20096;-75
2023/10/14 03:12:01;;;;;;;19.80;3.30;;;;;;;12.67;100.00;100467.75;5021054;28;20081;-76
2023/10/14 03:14:28;;;;;;;20.00;3.47;;;;;;;12.60;100.00;100474.56;5021071;28;20041;-76
2023/10/14 03:16:55;;;;;;;15.88;3.47;;;;;;;12.58;100.00;100479.16;5024893;28;20141;-76
2023/10/14 03:19:20;;;;;;;9.52;2.80;;;;;;;12.52;100.00;100479.66;5014626;28;20045;-76
2023/10/14 03:22:01;;;;;;;18.40;3.08;;;;;;;12.53;100.00;100485.84;5027262;28;24485;-77
2023/10/14 03:24:30;;;;;;;13.95;3.17;;;;;;;12.50;100.00;100491.44;5025815;28;20038;-76
2023/10/14 03:27:06;;;;;;;14.93;3.50;;;;;;;12.47;100.00;100489.84;5019863;28;20038;-75
2023/10/14 03:29:32;;;;;;;17.17;3.65;;;;;;;12.40;100.00;100502.84;5026852;28;20115;-76
2023/10/14 03:31:58;;;;;;;17.48;3.25;;;;;;;12.30;100.00;100498.28;5023725;28;20037;-76
2023/10/14 03:34:30;;;;;;;17.13;3.22;;;;;;;12.29;100.00;100509.97;5020140;28;31443;-76
2023/10/14 03:37:16;;;;;;;18.05;3.50;;;;;;;12.19;100.00;100513.31;5030578;28;20041;-75
2023/10/14 03:39:46;;;;;;;13.43;3.80;;;;;;;12.16;100.00;100524.28;5026955;28;20038;-76
2023/10/14 03:42:13;;;;;;;15.45;3.28;;;;;;;12.16;100.00;100532.28;5027709;28;20060;-77
2023/10/14 03:44:42;;;;;;;16.05;3.15;;;;;;;12.16;100.00;100547.47;5029557;28;20053;-75
2023/10/14 03:47:19;;;;;;;21.60;4.10;;;;;;;12.13;100.00;100551.22;5030902;28;20045;-75
2023/10/14 03:49:45;;;;;;;21.48;3.90;;;;;;;12.06;100.00;100549.13;5023518;28;20125;-76
2023/10/14 03:52:12;;;;;;;13.80;3.20;;;;;;;12.00;100.00;100552.25;5038228;28;20037;-76
2023/10/14 03:54:41;;;;;;;15.18;3.20;;;;;;;12.02;100.00;100547.66;5023254;28;20147;-76
2023/10/14 03:57:14;;;;;;;13.25;3.03;;;;;;;11.93;100.00;100551.84;5022821;28;20313;-76
2023/10/14 03:59:41;;;;;;;17.50;3.35;;;;;;;11.88;100.00;100559.34;5013885;28;20042;-75
2023/10/14 04:02:08;;;;;;;13.55;3.17;;;;;;;11.92;100.00;100560.84;5022623;28;20041;-75
2023/10/14 04:04:34;;;;;;;17.15;3.42;;;;;;;11.90;100.00;100574.31;5027950;28;22104;-76
2023/10/14 04:09:38;;;;;;;28.67;3.28;;;;;;;11.87;100.00;100579.03;5031181;28;20060;-76
2023/10/14 04:14:54;;;;;;;23.27;3.85;;;;;;;11.80;100.00;100588.44;5030084;28;20048;-77
2023/10/14 04:17:21;;;;;;;10.80;2.97;;;;;;;11.78;100.00;100591.19;5031482;28;20084;-75
2023/10/14 04:19:47;;;;;;;14.95;3.05;;;;;;;11.71;100.00;100599.78;5032782;28;20045;-76
2023/10/14 04:24:50;;;;;;;14.93;3.22;;;;;;;11.65;100.00;100617.94;5032946;28;20052;-76
2023/10/14 04:27:30;;;;;;;18.33;3.38;;;;;;;11.59;100.00;100621.03;5023181;28;20076;-76
2023/10/14 04:30:21;;;;;;;19.23;3.40;;;;;;;11.57;100.00;100617.63;5028473;28;20044;-76
2023/10/14 04:32:48;;;;;;;19.52;3.33;;;;;;;11.53;100.00;100624.16;5030457;28;20037;-76
2023/10/14 04:35:19;;;;;;;19.20;3.78;;;;;;;11.51;100.00;100631.41;5033724;28;20034;-77
2023/10/14 04:37:50;;;;;;;13.70;3.20;;;;;;;11.54;100.00;100633.00;5034498;28;20030;-76
2023/10/14 04:43:19;;;;;;;24.25;3.67;;;;;;;11.43;100.00;100644.44;5028370;28;20401;-77
2023/10/14 04:46:00;;;;;;;26.20;3.80;;;;;;;11.43;100.00;100656.94;5028345;28;20076;-78
2023/10/14 04:48:35;;;;;;;21.58;3.13;;;;;;;11.36;100.00;100667.22;5023299;28;20080;-76
2023/10/14 04:51:15;;;;;;;21.55;3.65;;;;;;;11.39;100.00;100667.81;5024070;28;20906;-77
2023/10/14 04:53:49;;;;;;;22.70;3.60;;;;;;;11.29;100.00;100672.09;5030683;28;20033;-78
2023/10/14 04:56:21;;;;;;;21.27;3.35;;;;;;;11.29;100.00;100674.75;5032008;28;20049;-76
2023/10/14 04:58:52;;;;;;;21.30;2.78;;;;;;;11.26;100.00;100676.81;5018800;28;20041;-77
2023/10/14 05:01:18;;;;;;;12.05;3.03;;;;;;;11.25;100.00;100683.97;5030636;28;20040;-77
2023/10/14 05:03:47;;;;;;;24.95;3.53;;;;;;;11.29;100.00;100701.47;5061213;28;20786;-76
2023/10/14 05:08:44;;;;;;;22.35;3.28;;;;;;;11.24;100.00;100703.59;5020877;28;20041;-75
2023/10/14 05:11:14;;;;;;;23.27;3.85;;;;;;;11.21;100.00;100708.31;5017063;28;20077;-77
2023/10/14 05:13:42;;;;;;;19.70;3.17;;;;;;;11.16;100.00;100713.94;5016216;28;20092;-76
2023/10/14 05:16:21;;;;;;;27.45;3.67;;;;;;;11.16;100.00;100719.28;5026894;28;20038;-77
2023/10/14 05:21:43;;;;;;;21.15;3.60;;;;;;;11.07;100.00;100723.44;5014863;28;20055;-76
2023/10/14 05:24:11;;;;;;;27.70;4.00;;;;;;;11.18;100.00;100741.38;5023461;28;20106;-77
2023/10/14 05:26:47;;;;;;;26.33;4.22;;;;;;;11.03;100.00;100740.59;5024940;28;20044;-77
2023/10/14 05:29:19;;;;;;;23.90;3.75;;;;;;;11.03;100.00;100745.94;5031229;28;20037;-76
2023/10/14 05:31:48;;;;;;;16.27;3.20;;;;;;;10.97;100.00;100748.16;5019536;28;20037;-77
2023/10/14 05:34:15;;;;;;;18.95;3.25;;;;;;;10.94;100.00;100761.69;5024758;28;20042;-76
2023/10/14 05:36:41;;;;;;;19.10;3.25;;;;;;;10.89;100.00;100757.53;5028328;28;20042;-76
2023/10/14 05:39:08;;;;;;;20.02;4.32;;;;;;;10.95;100.00;100772.28;5030769;28;20390;-76
2023/10/14 05:41:36;;;;;;;13.93;3.08;;;;;;;10.97;100.00;100781.03;5024817;28;20037;-75
2023/10/14 05:44:04;;;;;;;19.45;4.30;;;;;;;10.99;100.00;100786.25;5026830;28;20029;-76
2023/10/14 05:46:30;;;;;;;14.20;3.10;;;;;;;10.92;100.00;100787.63;5027009;28;20151;-76
2023/10/14 05:48:56;;;;;;;22.17;3.63;;;;;;;10.85;100.00;100801.38;5021884;28;20041;-77
2023/10/14 05:51:22;;;;;;;15.40;3.60;;;;;;;10.86;100.00;100794.22;5026864;28;21339;-75
2023/10/14 05:53:48;;;;;;;15.23;3.35;;;;;;;10.80;100.00;100800.81;5022801;28;21267;-75
2023/10/14 05:56:14;;;;;;;11.23;3.30;;;;;;;10.79;100.00;100798.22;5018354;28;20040;-77
2023/10/14 05:58:41;;;;;;;17.80;3.20;;;;;;;10.83;100.00;100810.41;5024073;28;20041;-76
2023/10/14 06:01:12;;;;;;;23.30;3.60;;;;;;;10.83;100.00;100810.41;5018604;28;20037;-75
2023/10/14 06:03:38;;;;;;;20.15;3.00;;;;;;;10.78;100.00;100818.72;5022826;28;20042;-76
2023/10/14 06:06:09;;;;;;;19.00;3.33;;;;;;;10.76;100.00;100823.31;5022458;28;20053;-76
2023/10/14 06:08:38;;;;;;;20.02;3.70;;;;;;;10.80;100.00;100830.16;5023708;28;20048;-76
2023/10/14 06:11:07;;;;;;;24.92;4.53;;;;;;;10.84;100.00;100839.69;5055590;28;20041;-76
2023/10/14 06:13:34;;;;;;;21.75;3.47;;;;;;;10.81;100.00;100847.03;5010484;28;20304;-78
2023/10/14 06:16:04;;;;;;;17.77;4.57;;;;;;;10.78;100.00;100844.53;5020370;28;20056;-77
2023/10/14 06:18:32;;;;;;;11.55;3.03;;;;;;;10.80;100.00;100851.50;5029989;28;20453;-78
2023/10/14 06:20:59;;;;;;;12.57;3.28;;;;;;;10.89;100.00;100856.25;5025116;28;20136;-76
2023/10/14 06:23:28;;;;;;;21.02;2.70;;;;;;;10.95;100.00;100860.34;5024107;28;20037;-77
2023/10/14 06:25:56;;;;;;;19.02;3.15;;;;;;;10.91;100.00;100864.16;5028581;28;20231;-76
2023/10/14 06:28:22;;;;;;;16.15;3.35;;;;;;;10.88;100.00;100867.84;5016088;28;20100;-76
2023/10/14 06:30:48;;;;;;;18.42;3.75;;;;;;;10.91;100.00;100872.16;5024883;28;20033;-78
2023/10/14 06:33:13;;;;;;;13.68;3.05;;;;;;;10.91;100.00;100876.63;5021620;28;20049;-75
2023/10/14 06:35:46;;;;;;;19.17;2.88;;;;;;;11.02;100.00;100879.47;5018034;28;20034;-76
2023/10/14 06:38:17;;;;;;;;;;;;;;;11.01;100.00;100891.94;5022108;28;20033;-76
2023/10/14 06:40:44;;;;;;;17.55;3.00;;;;;;;11.11;100.00;100887.72;5021950;28;20055;-76
2023/10/14 06:43:10;;;;;;;13.63;2.72;;;;;;;11.21;100.00;100885.31;5022342;28;20073;-75
2023/10/14 06:45:37;;;;;;;19.15;3.67;;;;;;;11.29;100.00;100892.81;5018664;28;20612;-76
2023/10/14 06:48:05;;;;;;;25.67;4.32;;;;;;;11.37;100.00;100902.03;5023054;28;20041;-76
2023/10/14 06:50:32;;;;;;;21.85;3.53;;;;;;;11.57;100.00;100908.72;5022752;28;20037;-76
2023/10/14 06:53:01;;;;;;;19.98;3.47;;;;;;;11.71;100.00;100909.63;5029578;28;20080;-76
2023/10/14 06:55:37;;;;;;;19.40;4.03;;;;;;;11.74;100.00;100910.25;5027276;28;20041;-77
2023/10/14 06:58:05;;;;;;;26.48;4.35;;;;;;;11.96;100.00;100908.88;5023863;28;20248;-77
2023/10/14 07:00:32;;;;;;;21.70;3.50;;;;;;;12.03;100.00;100913.69;5021316;28;20057;-76
2023/10/14 07:03:01;;;;;;;13.48;3.38;;;;;;;12.25;100.00;100914.88;5029357;28;20021;-76
2023/10/14 07:05:29;;;;;;;21.13;3.85;;;;;;;12.42;100.00;100928.78;5031191;28;20143;-77
2023/10/14 07:07:57;;;;;;;21.70;4.15;;;;;;;12.53;100.00;100933.38;5021877;28;20026;-76
2023/10/14 07:10:27;;;;;;;17.88;3.90;;;;;;;12.85;100.00;100930.25;5028020;28;20029;-76
2023/10/14 07:13:00;;;;;;;17.05;4.38;;;;;;;12.97;100.00;100934.72;5022747;28;20025;-76
2023/10/14 07:15:26;;;;;;;16.92;4.20;;;;;;;13.39;100.00;100944.16;5026617;28;20053;-76
2023/10/14 07:17:54;;;;;;;17.42;4.40;;;;;;;13.90;100.00;100933.19;5034799;28;20049;-77
2023/10/14 07:20:20;;;;;;;15.00;3.35;;;;;;;14.23;100.00;100936.97;5028222;28;20041;-76
2023/10/14 07:22:45;;;;;;;22.23;3.80;;;;;;;14.59;100.00;100938.63;5033519;28;20037;-76
2023/10/14 07:25:11;;;;;;;20.17;3.40;;;;;;;14.82;100.00;100934.13;5020103;28;23791;-76
2023/10/14 07:27:39;;;;;;;18.90;3.40;;;;;;;14.65;100.00;100937.28;5021062;28;20061;-77
2023/10/14 07:30:16;;;;;;;13.95;3.58;;;;;;;13.92;100.00;100950.03;5028388;28;20080;-76
2023/10/14 07:32:46;;;;;;;16.77;3.28;;;;;;;13.26;100.00;100955.91;5026038;28;20037;-75
2023/10/14 07:35:13;;;;;;;23.23;3.03;;;;;;;13.04;100.00;100965.44;5024571;28;20068;-76
2023/10/14 07:37:50;;;;;;;12.93;3.38;;;;;;;12.88;100.00;100972.84;5027688;28;20037;-78
2023/10/14 07:40:23;;;;;;;20.17;3.85;;;;;;;12.72;100.00;100969.56;5027747;28;20121;-76
2023/10/14 07:43:13;;;;;;;;;;;;;;;12.77;100.00;100981.66;5028328;28;20029;-77
2023/10/14 07:45:43;;;;;;;18.67;3.95;;;;;;;12.78;100.00;100988.69;5024641;28;20028;-75
2023/10/14 07:48:10;;;;;;;24.80;4.40;;;;;;;12.80;100.00;100983.22;5021447;28;20030;-76
2023/10/14 07:50:37;;;;;;;24.80;3.78;;;;;;;12.87;100.00;100995.25;5026192;28;20044;-77
2023/10/14 07:53:12;;;;;;;19.38;3.95;;;;;;;12.85;100.00;100989.13;5025011;28;20048;-76
2023/10/14 07:55:41;;;;;;;22.98;4.47;;;;;;;12.78;100.00;101007.44;5025969;28;20034;-76
2023/10/14 07:58:10;;;;;;;21.50;4.78;;;;;;;12.75;100.00;101005.00;5027607;28;20041;-77
2023/10/14 08:00:41;;;;;;;18.45;4.93;;;;;;;12.66;100.00;101005.63;5027683;28;20033;-76
2023/10/14 08:03:09;;;;;;;21.50;4.35;;;;;;;12.74;100.00;101013.97;5022189;28;20034;-77
2023/10/14 08:05:38;;;;;;;21.33;4.53;;;;;;;12.72;100.00;101015.03;5021412;28;20232;-77
2023/10/14 08:08:09;;;;;;;21.48;4.40;;;;;;;12.73;100.00;101011.41;5044883;28;20159;-77
2023/10/14 08:10:42;;;;;;;18.33;3.67;;;;;;;12.73;100.00;101017.59;5024760;28;20096;-76
2023/10/14 08:13:09;;;;;;;21.92;3.78;;;;;;;12.84;100.00;101025.72;5021770;28;20061;-76
2023/10/14 08:15:36;;;;;;;27.60;5.45;;;;;;;12.76;100.00;101025.44;5022969;28;20034;-76
2023/10/14 08:18:04;;;;;;;31.05;3.95;;;;;;;12.80;100.00;101028.72;5031806;28;20906;-76
2023/10/14 08:20:34;;;;;;;16.85;4.28;;;;;;;12.85;100.00;101030.16;5030495;28;20038;-77
2023/10/14 08:23:00;;;;;;;18.50;4.28;;;;;;;12.95;100.00;101033.88;5026403;28;20032;-76
2023/10/14 08:25:26;;;;;;;20.77;4.63;;;;;;;13.08;100.00;101038.38;5020971;28;20033;-77
2023/10/14 08:27:53;;;;;;;24.15;4.40;;;;;;;13.04;100.00;101042.22;5030086;28;20050;-76
2023/10/14 08:30:24;;;;;;;20.05;4.82;;;;;;;13.20;100.00;101046.41;5029495;28;20044;-76
2023/10/14 08:32:52;;;;;;;30.80;6.22;;;;;;;13.25;100.00;101053.25;5026514;28;20467;-76
2023/10/14 08:35:19;;;;;;;27.70;4.80;;;;;;;13.34;100.00;101055.28;5023773;28;20042;-77
2023/10/14 08:37:51;;;;;;;19.77;4.40;;;;;;;13.32;100.00;101062.59;5023035;28;20030;-77
2023/10/14 08:40:19;;;;;;;22.00;4.53;;;;;;;13.45;100.00;101069.66;5028791;28;20136;-77
2023/10/14 08:42:54;;;;;;;23.50;4.90;;;;;;;13.44;100.00;101073.25;5027857;28;21047;-75
2023/10/14 08:45:21;;;;;;;24.55;3.95;;;;;;;13.54;100.00;101065.41;5029303;28;20046;-75
2023/10/14 08:47:52;;;;;;;23.20;4.25;;;;;;;13.50;100.00;101076.47;5018180;28;21071;-75
2023/10/14 08:50:24;;;;;;;26.27;4.53;;;;;;;13.54;100.00;101080.66;5020079;28;20052;-76
2023/10/14 08:52:51;;;;;;;26.17;4.78;;;;;;;13.64;100.00;101070.97;5031067;28;20068;-76
2023/10/14 08:55:19;;;;;;;21.67;3.80;;;;;;;13.72;100.00;101076.66;5026406;28;20159;-75
2023/10/14 08:57:45;;;;;;;24.83;4.97;;;;;;;13.74;100.00;101080.91;5029579;28;20046;-76
2023/10/14 09:00:19;;;;;;;26.50;4.22;;;;;;;13.87;100.00;101088.06;5035337;28;20143;-76
2023/10/14 09:02:53;;;;;;;30.92;4.72;;;;;;;13.72;100.00;101082.00;5026225;28;20037;-76
2023/10/14 09:05:19;;;;;;;17.67;4.15;;;;;;;13.87;100.00;101083.56;5026963;28;20165;-75
2023/10/14 09:07:49;;;;;;;16.80;3.83;;;;;;;14.04;100.00;101085.00;5023469;28;20050;-76
2023/10/14 09:10:18;;;;;;;16.98;4.32;;;;;;;13.99;100.00;101082.66;5016551;28;20149;-75
2023/10/14 09:12:57;;;;;;;21.70;4.20;;;;;;;14.04;100.00;101095.72;5041469;28;20149;-76
2023/10/14 09:15:25;;;;;;;18.13;4.22;;;;;;;14.12;100.00;101097.84;5028443;28;20053;-75
2023/10/14 09:17:55;;;;;;;22.88;4.35;;;;;;;14.00;100.00;101102.28;5030933;28;20291;-77
2023/10/14 09:20:35;;;;;;;20.00;4.45;;;;;;;14.14;100.00;101101.25;5039177;28;20029;-77
2023/10/14 09:23:17;;;;;;;16.73;4.10;;;;;;;14.08;100.00;101091.00;5026755;28;20088;-75
2023/10/14 09:25:49;;;;;;;22.35;3.38;;;;;;;13.88;100.00;101108.53;5025639;28;20055;-76
2023/10/14 09:28:19;;;;;;;24.38;5.00;;;;;;;14.03;100.00;101114.63;5028609;28;20563;-76
2023/10/14 09:30:44;;;;;;;26.13;4.50;;;;;;;14.06;100.00;101112.56;5024848;28;20032;-75
2023/10/14 09:33:15;;;;;;;27.95;4.53;;;;;;;13.94;100.00;101116.13;5023260;28;20033;-76
2023/10/14 09:35:44;;;;;;;25.70;4.88;;;;;;;14.03;100.00;101118.16;5026618;28;20076;-76
2023/10/14 09:38:12;;;;;;;20.25;4.53;;;;;;;14.12;100.00;101113.94;5028197;28;20056;-76
2023/10/14 09:40:38;;;;;;;25.83;4.65;;;;;;;14.25;100.00;101110.22;5031006;28;20048;-77
2023/10/14 09:43:06;;;;;;;26.85;4.15;;;;;;;14.25;100.00;101120.09;5025284;28;20034;-77
2023/10/14 09:45:33;;;;;;;20.50;4.00;;;;;;;14.45;100.00;101116.75;5019989;28;20240;-76
2023/10/14 09:48:01;;;;;;;24.90;4.60;;;;;;;14.64;100.00;101112.72;5025186;28;20037;-75
2023/10/14 09:50:29;;;;;;;21.25;4.70;;;;;;;14.81;100.00;101106.94;5035882;28;20467;-77
2023/10/14 09:52:57;;;;;;;19.35;4.03;;;;;;;14.70;100.00;101110.44;5023506;28;21031;-76
2023/10/14 09:55:24;;;;;;;25.67;4.38;;;;;;;14.70;100.00;101120.31;5026789;28;20079;-77
2023/10/14 09:57:50;;;;;;;18.60;3.78;;;;;;;14.93;100.00;101115.88;5026651;28;20028;-76
2023/10/14 10:00:19;;;;;;;25.90;5.00;;;;;;;15.38;100.00;101115.94;5035096;28;20106;-76
2023/10/14 10:02:48;;;;;;;20.15;4.70;;;;;;;15.35;96.14;101106.28;5059899;28;20040;-77
2023/10/14 10:05:20;;;;;;;21.83;3.55;;;;;;;15.52;96.85;101113.03;5027099;28;20046;-77
2023/10/14 10:08:11;;;;;;;25.23;3.72;;;;;;;15.90;97.47;101126.06;5024447;28;20052;-75
2023/10/14 10:10:38;;;;;;;13.82;3.45;;;;;;;15.46;93.32;101129.59;5027076;28;21085;-77
2023/10/14 10:13:05;;;;;;;23.45;4.63;;;;;;;15.28;93.48;101124.72;5021326;28;20103;-77
2023/10/14 10:15:35;;;;;;;17.08;3.88;;;;;;;15.46;99.88;101137.66;5022374;28;20045;-77
2023/10/14 10:18:05;;;;;;;23.95;4.22;;;;;;;15.39;95.80;101133.78;5026936;28;20633;-76
2023/10/14 10:20:36;;;;;;;23.67;3.55;;;;;;;15.25;94.82;101141.06;5022889;28;20111;-75
2023/10/14 10:23:02;;;;;;;20.15;4.03;;;;;;;15.06;93.57;101148.00;5026379;28;20136;-77
2023/10/14 10:25:50;;;;;;;15.77;3.10;;;;;;;15.08;91.92;101132.63;5014109;28;20042;-76
2023/10/14 10:28:27;;;;;;;18.10;3.53;;;;;;;15.11;92.38;101135.94;5026527;28;20028;-77
2023/10/14 10:30:55;;;;;;;11.85;3.22;;;;;;;15.13;90.22;101131.31;5028426;28;20041;-77
2023/10/14 10:33:23;;;;;;;21.10;3.88;;;;;;;15.16;90.74;101128.38;5024050;28;20025;-74
2023/10/14 10:35:58;;;;;;;16.33;3.58;;;;;;;15.16;90.87;101136.44;5023309;28;20049;-76
2023/10/14 10:38:27;;;;;;;21.58;4.03;;;;;;;15.11;89.43;101141.31;5026733;28;20882;-78
2023/10/14 10:41:23;;;;;;;13.82;3.03;;;;;;;14.92;87.00;101135.66;5023556;28;20142;-75
2023/10/14 10:44:01;;;;;;;15.50;3.08;;;;;;;14.92;86.57;101149.09;5033629;28;20084;-76
2023/10/14 10:46:44;;;;;;;10.88;2.58;;;;;;;14.86;86.47;101165.63;5028967;28;20059;-76
2023/10/14 10:49:12;;;;;;;5.47;1.40;;;;;;;14.62;80.06;101155.81;5023476;28;20029;-76
2023/10/14 10:52:12;;;;;;;9.45;2.00;;;;;;;14.43;79.83;101169.69;5023079;28;20070;-78
2023/10/14 10:54:43;;;;;;;7.22;2.28;;;;;;;14.32;81.92;101177.69;5027715;28;20060;-74
2023/10/14 10:57:08;;;;;;;11.32;2.88;;;;;;;14.08;82.61;101192.91;5025812;28;20228;-75
2023/10/14 10:59:37;;;;;;;10.20;2.30;;;;;;;14.28;86.69;101181.56;5021238;28;20052;-74
2023/10/14 11:02:10;;;;;;;9.88;1.98;;;;;;;14.28;86.97;101183.41;5027406;28;20036;-76
2023/10/14 11:04:36;;;;;;;9.20;2.10;;;;;;;14.55;86.78;101184.06;5029675;28;20064;-74
2023/10/14 11:07:03;;;;;;;10.88;2.03;;;;;;;14.76;85.61;101189.66;5025972;28;20060;-76
2023/10/14 11:09:34;;;;;;;10.45;2.20;;;;;;;14.90;84.89;101185.91;5023151;28;20033;-75
2023/10/14 11:12:00;;;;;;;13.68;2.80;;;;;;;14.58;85.55;101188.34;5025815;28;20042;-74
2023/10/14 11:14:26;;;;;;;12.77;3.67;;;;;;;14.55;86.16;101184.06;5023019;28;20033;-76
2023/10/14 11:16:56;;;;;;;14.77;2.92;;;;;;;14.64;86.32;101190.56;5024194;28;20042;-76
2023/10/14 11:19:21;;;;;;;17.75;3.58;;;;;;;14.80;87.16;101192.97;5024981;28;20080;-74
2023/10/14 11:21:52;;;;;;;20.02;3.75;;;;;;;14.85;89.18;101194.31;5016557;28;24749;-76
2023/10/14 11:24:18;;;;;;;16.77;3.67;;;;;;;14.79;86.74;101196.63;5021576;28;20044;-75
2023/10/14 11:26:45;;;;;;;15.30;3.78;;;;;;;14.70;85.81;101195.47;5021441;28;20512;-76
2023/10/14 11:29:11;;;;;;;12.73;3.45;;;;;;;14.63;88.16;101199.59;5021096;28;20033;-77
2023/10/14 11:31:39;;;;;;;15.90;3.40;;;;;;;14.56;88.18;101192.97;5023055;28;20111;-75
2023/10/14 11:34:06;;;;;;;17.55;3.58;;;;;;;14.64;88.77;101193.25;5020505;28;20092;-75
2023/10/14 11:36:32;;;;;;;13.88;3.22;;;;;;;14.86;91.12;101192.50;5019019;28;20042;-75
2023/10/14 11:39:01;;;;;;;15.68;3.30;;;;;;;15.14;91.26;101192.09;5020296;28;20073;-75
2023/10/14 11:41:26;;;;;;;18.98;3.28;;;;;;;15.08;89.86;101200.63;5020599;28;20040;-76
2023/10/14 11:43:52;;;;;;;15.82;3.25;;;;;;;14.81;86.45;101203.59;5028895;28;20064;-76
2023/10/14 11:46:17;;;;;;;15.70;3.25;;;;;;;14.78;84.07;101198.44;5024526;28;20797;-74
2023/10/14 11:48:49;;;;;;;15.90;3.58;;;;;;;14.84;84.17;101206.03;5023832;28;20037;-76
2023/10/14 11:51:21;;;;;;;19.58;3.70;;;;;;;14.91;86.56;101204.63;5013547;28;21088;-74
2023/10/14 11:53:50;;;;;;;;;;;;;;;14.61;86.63;101205.09;5019149;28;20547;-76
2023/10/14 11:56:16;;;;;;;14.88;2.78;;;;;;;14.93;86.99;101199.13;5024179;28;19931;-75
2023/10/14 11:58:42;;;;;;;23.05;3.15;;;;;;;14.93;83.77;101199.97;5024267;28;20029;-75